sensor_id;sensor_type;location;lat;lon;timestamp;pressure;altitude;pressure_sealevel;temperature;humidity
10668;BME280;5382;42.136;24.796;2023-03-19T00:02:05;100538.88;;;5.34;100.00
10668;BME280;5382;42.136;24.796;2023-03-19T00:04:32;100561.22;;;5.44;100.00
10668;BME280;5382;42.136;24.796;2023-03-19T00:06:59;100498.50;;;5.16;100.00
10668;BME280;5382;42.136;24.796;2023-03-19T00:09:26;100558.78;;;5.40;100.00
10668;BME280;5382;42.136;24.796;2023-03-19T00:11:53;100554.31;;;5.42;100.00
10668;BME280;5382;42.136;24.796;2023-03-19T00:14:21;100547.00;;;5.50;100.00
10668;BME280;5382;42.136;24.796;2023-03-19T00:16:48;100496.75;;;5.17;100.00
10668;BME280;5382;42.136;24.796;2023-03-19T00:19:15;100551.47;;;5.48;100.00
10668;BME280;5382;42.136;24.796;2023-03-19T00:21:42;100506.19;;;5.21;100.00
10668;BME280;5382;42.136;24.796;2023-03-19T00:24:09;100532.72;;;5.35;100.00
10668;BME280;5382;42.136;24.796;2023-03-19T00:26:36;100495.81;;;5.18;100.00
10668;BME280;5382;42.136;24.796;2023-03-19T00:29:03;100489.41;;;5.03;100.00
10668;BME280;5382;42.136;24.796;2023-03-19T00:31:32;100496.03;;;4.90;100.00
10668;BME280;5382;42.136;24.796;2023-03-19T00:33:59;100520.03;;;5.02;100.00
10668;BME280;5382;42.136;24.796;2023-03-19T00:36:26;100524.59;;;4.97;100.00
10668;BME280;5382;42.136;24.796;2023-03-19T00:38:54;100525.72;;;4.90;100.00
10668;BME280;5382;42.136;24.796;2023-03-19T00:41:22;100515.50;;;4.84;100.00
10668;BME280;5382;42.136;24.796;2023-03-19T00:43:52;100496.72;;;4.73;100.00
10668;BME280;5382;42.136;24.796;2023-03-19T00:46:19;100471.19;;;4.54;100.00
10668;BME280;5382;42.136;24.796;2023-03-19T00:48:48;100510.38;;;4.81;100.00
10668;BME280;5382;42.136;24.796;2023-03-19T00:51:15;100487.13;;;4.72;100.00
10668;BME280;5382;42.136;24.796;2023-03-19T00:53:43;100494.81;;;4.76;100.00
10668;BME280;5382;42.136;24.796;2023-03-19T00:56:11;100512.81;;;4.86;100.00
10668;BME280;5382;42.136;24.796;2023-03-19T00:58:39;100464.09;;;4.56;100.00
10668;BME280;5382;42.136;24.796;2023-03-19T01:01:06;100444.19;;;4.29;100.00
10668;BME280;5382;42.136;24.796;2023-03-19T01:03:33;100507.63;;;4.84;100.00
10668;BME280;5382;42.136;24.796;2023-03-19T01:06:01;100513.88;;;4.80;100.00
10668;BME280;5382;42.136;24.796;2023-03-19T01:08:29;100504.03;;;4.87;100.00
10668;BME280;5382;42.136;24.796;2023-03-19T01:11:03;100493.41;;;4.68;100.00
10668;BME280;5382;42.136;24.796;2023-03-19T01:13:30;100503.34;;;4.81;100.00
10668;BME280;5382;42.136;24.796;2023-03-19T01:15:57;100481.06;;;4.70;100.00
10668;BME280;5382;42.136;24.796;2023-03-19T01:18:24;100505.94;;;4.83;100.00
10668;BME280;5382;42.136;24.796;2023-03-19T01:20:51;100393.84;;;4.21;100.00
10668;BME280;5382;42.136;24.796;2023-03-19T01:23:19;100498.66;;;4.90;100.00
10668;BME280;5382;42.136;24.796;2023-03-19T01:25:46;100505.03;;;4.82;100.00
10668;BME280;5382;42.136;24.796;2023-03-19T01:28:13;100492.16;;;4.78;100.00
10668;BME280;5382;42.136;24.796;2023-03-19T01:30:40;100501.53;;;4.84;100.00
10668;BME280;5382;42.136;24.796;2023-03-19T01:33:07;100499.28;;;4.96;100.00
10668;BME280;5382;42.136;24.796;2023-03-19T01:35:34;100495.44;;;4.83;100.00
10668;BME280;5382;42.136;24.796;2023-03-19T01:38:01;100504.25;;;5.04;100.00
10668;BME280;5382;42.136;24.796;2023-03-19T01:40:29;100505.94;;;5.05;100.00
10668;BME280;5382;42.136;24.796;2023-03-19T01:43:12;100510.31;;;5.05;100.00
10668;BME280;5382;42.136;24.796;2023-03-19T01:45:41;100506.69;;;5.09;100.00
10668;BME280;5382;42.136;24.796;2023-03-19T01:48:16;100504.41;;;4.99;100.00
10668;BME280;5382;42.136;24.796;2023-03-19T01:50:45;100499.03;;;4.80;100.00
10668;BME280;5382;42.136;24.796;2023-03-19T01:53:16;100503.47;;;4.78;100.00
10668;BME280;5382;42.136;24.796;2023-03-19T01:55:45;100470.44;;;4.51;100.00
10668;BME280;5382;42.136;24.796;2023-03-19T01:58:13;100503.88;;;4.68;100.00
10668;BME280;5382;42.136;24.796;2023-03-19T02:00:41;100508.22;;;4.69;100.00
10668;BME280;5382;42.136;24.796;2023-03-19T02:03:08;100517.25;;;4.84;100.00
10668;BME280;5382;42.136;24.796;2023-03-19T02:05:37;100545.06;;;4.88;100.00
10668;BME280;5382;42.136;24.796;2023-03-19T02:08:08;100518.44;;;4.75;100.00
10668;BME280;5382;42.136;24.796;2023-03-19T02:10:36;100502.00;;;4.71;100.00
10668;BME280;5382;42.136;24.796;2023-03-19T02:13:05;100510.38;;;4.81;100.00
10668;BME280;5382;42.136;24.796;2023-03-19T02:15:32;100490.91;;;4.87;100.00
10668;BME280;5382;42.136;24.796;2023-03-19T02:18:00;100518.06;;;5.08;100.00
10668;BME280;5382;42.136;24.796;2023-03-19T02:20:31;100522.34;;;5.10;100.00
10668;BME280;5382;42.136;24.796;2023-03-19T02:23:06;100531.25;;;5.28;100.00
10668;BME280;5382;42.136;24.796;2023-03-19T02:25:39;100498.75;;;5.10;100.00
10668;BME280;5382;42.136;24.796;2023-03-19T02:28:11;100538.34;;;5.48;100.00
10668;BME280;5382;42.136;24.796;2023-03-19T02:30:41;100538.56;;;5.64;100.00
10668;BME280;5382;42.136;24.796;2023-03-19T02:33:10;100525.69;;;5.58;100.00
10668;BME280;5382;42.136;24.796;2023-03-19T02:35:37;100498.19;;;5.46;100.00
10668;BME280;5382;42.136;24.796;2023-03-19T02:38:04;100537.78;;;5.82;100.00
10668;BME280;5382;42.136;24.796;2023-03-19T02:40:35;100476.06;;;5.52;99.24
10668;BME280;5382;42.136;24.796;2023-03-19T02:43:03;100545.06;;;5.98;99.41
10668;BME280;5382;42.136;24.796;2023-03-19T02:45:32;100514.88;;;5.65;96.82
10668;BME280;5382;42.136;24.796;2023-03-19T02:47:59;100534.81;;;5.69;97.65
10668;BME280;5382;42.136;24.796;2023-03-19T02:50:26;100546.84;;;5.75;97.77
10668;BME280;5382;42.136;24.796;2023-03-19T02:52:52;100547.47;;;5.60;99.18
10668;BME280;5382;42.136;24.796;2023-03-19T02:55:19;100534.06;;;5.45;100.00
10668;BME280;5382;42.136;24.796;2023-03-19T02:57:46;100440.47;;;4.80;100.00
10668;BME280;5382;42.136;24.796;2023-03-19T03:00:14;100539.84;;;5.54;100.00
10668;BME280;5382;42.136;24.796;2023-03-19T03:02:44;100551.03;;;5.59;99.75
10668;BME280;5382;42.136;24.796;2023-03-19T03:05:12;100552.97;;;5.54;100.00
10668;BME280;5382;42.136;24.796;2023-03-19T03:07:39;100539.69;;;5.58;100.00
10668;BME280;5382;42.136;24.796;2023-03-19T03:10:09;100547.38;;;5.63;99.88
10668;BME280;5382;42.136;24.796;2023-03-19T03:12:36;100544.53;;;5.67;99.63
10668;BME280;5382;42.136;24.796;2023-03-19T03:15:05;100543.31;;;5.76;98.59
10668;BME280;5382;42.136;24.796;2023-03-19T03:17:34;100515.44;;;5.52;98.44
10668;BME280;5382;42.136;24.796;2023-03-19T03:20:05;100534.47;;;5.57;99.01
10668;BME280;5382;42.136;24.796;2023-03-19T03:22:32;100554.06;;;5.70;98.65
10668;BME280;5382;42.136;24.796;2023-03-19T03:24:59;100526.72;;;5.54;98.03
10668;BME280;5382;42.136;24.796;2023-03-19T03:27:26;100556.81;;;5.67;98.73
10668;BME280;5382;42.136;24.796;2023-03-19T03:29:53;100550.84;;;5.63;98.69
10668;BME280;5382;42.136;24.796;2023-03-19T03:32:20;100548.94;;;5.67;98.23
10668;BME280;5382;42.136;24.796;2023-03-19T03:34:46;100526.38;;;5.41;98.86
10668;BME280;5382;42.136;24.796;2023-03-19T03:37:15;100537.72;;;5.41;98.96
10668;BME280;5382;42.136;24.796;2023-03-19T03:39:42;100553.81;;;5.54;98.54
10668;BME280;5382;42.136;24.796;2023-03-19T03:42:09;100559.81;;;5.58;99.35
10668;BME280;5382;42.136;24.796;2023-03-19T03:44:36;100542.75;;;5.47;99.13
10668;BME280;5382;42.136;24.796;2023-03-19T03:47:03;100544.50;;;5.47;99.51
10668;BME280;5382;42.136;24.796;2023-03-19T03:49:30;100551.69;;;5.64;98.63
10668;BME280;5382;42.136;24.796;2023-03-19T03:51:57;100494.41;;;5.31;98.70
10668;BME280;5382;42.136;24.796;2023-03-19T03:54:25;100564.81;;;5.64;98.86
10668;BME280;5382;42.136;24.796;2023-03-19T03:56:52;100562.84;;;5.69;99.55
10668;BME280;5382;42.136;24.796;2023-03-19T03:59:19;100529.13;;;5.38;100.00
10668;BME280;5382;42.136;24.796;2023-03-19T04:01:46;100561.72;;;5.54;99.28
10668;BME280;5382;42.136;24.796;2023-03-19T04:04:12;100524.72;;;5.38;99.68
10668;BME280;5382;42.136;24.796;2023-03-19T04:06:39;100564.94;;;5.39;100.00
10668;BME280;5382;42.136;24.796;2023-03-19T04:09:06;100560.84;;;5.54;100.00
10668;BME280;5382;42.136;24.796;2023-03-19T04:11:35;100551.47;;;5.48;100.00
10668;BME280;5382;42.136;24.796;2023-03-19T04:14:02;100521.00;;;5.44;100.00
10668;BME280;5382;42.136;24.796;2023-03-19T04:16:29;100566.16;;;5.74;97.41
10668;BME280;5382;42.136;24.796;2023-03-19T04:18:56;100564.78;;;5.86;98.89
10668;BME280;5382;42.136;24.796;2023-03-19T04:21:23;100517.78;;;5.37;97.12
10668;BME280;5382;42.136;24.796;2023-03-19T04:23:50;100561.38;;;5.84;97.36
10668;BME280;5382;42.136;24.796;2023-03-19T04:26:17;100553.28;;;5.88;95.76
10668;BME280;5382;42.136;24.796;2023-03-19T04:28:45;100562.75;;;5.93;94.34
10668;BME280;5382;42.136;24.796;2023-03-19T04:31:12;100564.78;;;5.86;95.07
10668;BME280;5382;42.136;24.796;2023-03-19T04:33:40;100562.06;;;5.67;96.36
10668;BME280;5382;42.136;24.796;2023-03-19T04:36:07;100569.75;;;5.72;96.85
10668;BME280;5382;42.136;24.796;2023-03-19T04:38:34;100561.03;;;5.71;95.42
10668;BME280;5382;42.136;24.796;2023-03-19T04:41:00;100568.13;;;5.69;96.63
10668;BME280;5382;42.136;24.796;2023-03-19T04:43:28;100572.56;;;5.89;96.52
10668;BME280;5382;42.136;24.796;2023-03-19T04:45:56;100570.78;;;5.89;95.28
10668;BME280;5382;42.136;24.796;2023-03-19T04:48:23;100577.13;;;5.84;96.33
10668;BME280;5382;42.136;24.796;2023-03-19T04:50:51;100567.53;;;5.83;95.22
10668;BME280;5382;42.136;24.796;2023-03-19T04:53:21;100565.88;;;5.80;94.11
10668;BME280;5382;42.136;24.796;2023-03-19T04:55:48;100578.88;;;5.83;95.09
10668;BME280;5382;42.136;24.796;2023-03-19T04:58:15;100570.91;;;5.86;94.53
10668;BME280;5382;42.136;24.796;2023-03-19T05:00:43;100585.78;;;5.86;93.23
10668;BME280;5382;42.136;24.796;2023-03-19T05:03:13;100580.53;;;5.86;93.20
10668;BME280;5382;42.136;24.796;2023-03-19T05:05:41;100587.22;;;5.95;93.27
10668;BME280;5382;42.136;24.796;2023-03-19T05:08:08;100572.72;;;5.84;93.24
10668;BME280;5382;42.136;24.796;2023-03-19T05:10:36;100595.38;;;6.09;91.88
10668;BME280;5382;42.136;24.796;2023-03-19T05:13:03;100597.41;;;6.02;92.47
10668;BME280;5382;42.136;24.796;2023-03-19T05:15:31;100593.19;;;5.98;91.89
10668;BME280;5382;42.136;24.796;2023-03-19T05:17:58;100595.69;;;6.01;91.58
10668;BME280;5382;42.136;24.796;2023-03-19T05:20:27;100609.63;;;6.03;89.83
10668;BME280;5382;42.136;24.796;2023-03-19T05:22:54;100582.63;;;5.78;91.97
10668;BME280;5382;42.136;24.796;2023-03-19T05:25:21;100601.81;;;5.80;91.73
10668;BME280;5382;42.136;24.796;2023-03-19T05:27:47;100598.31;;;5.79;93.21
10668;BME280;5382;42.136;24.796;2023-03-19T05:30:14;100597.28;;;5.83;93.53
10668;BME280;5382;42.136;24.796;2023-03-19T05:32:43;100604.50;;;6.00;94.66
10668;BME280;5382;42.136;24.796;2023-03-19T05:35:11;100587.88;;;6.00;92.42
10668;BME280;5382;42.136;24.796;2023-03-19T05:37:39;100607.16;;;6.21;91.18
10668;BME280;5382;42.136;24.796;2023-03-19T05:40:08;100597.47;;;6.21;91.19
10668;BME280;5382;42.136;24.796;2023-03-19T05:42:34;100590.25;;;6.26;89.05
10668;BME280;5382;42.136;24.796;2023-03-19T05:45:02;100617.91;;;6.55;87.44
10668;BME280;5382;42.136;24.796;2023-03-19T05:47:29;100614.94;;;6.63;85.44
10668;BME280;5382;42.136;24.796;2023-03-19T05:49:56;100617.50;;;6.65;84.10
10668;BME280;5382;42.136;24.796;2023-03-19T05:52:23;100619.94;;;6.69;83.32
10668;BME280;5382;42.136;24.796;2023-03-19T05:54:52;100624.69;;;6.61;82.75
10668;BME280;5382;42.136;24.796;2023-03-19T05:57:19;100624.22;;;6.51;85.13
10668;BME280;5382;42.136;24.796;2023-03-19T05:59:45;100623.03;;;6.18;87.16
10668;BME280;5382;42.136;24.796;2023-03-19T06:02:12;100635.91;;;6.24;87.25
10668;BME280;5382;42.136;24.796;2023-03-19T06:04:39;100639.78;;;6.15;87.32
10668;BME280;5382;42.136;24.796;2023-03-19T06:07:06;100630.97;;;6.16;87.93
10668;BME280;5382;42.136;24.796;2023-03-19T06:09:33;100630.34;;;6.31;86.75
10668;BME280;5382;42.136;24.796;2023-03-19T06:12:01;100637.56;;;6.26;85.89
10668;BME280;5382;42.136;24.796;2023-03-19T06:14:28;100628.84;;;6.04;87.69
10668;BME280;5382;42.136;24.796;2023-03-19T06:16:55;100637.41;;;6.09;88.24
10668;BME280;5382;42.136;24.796;2023-03-19T06:19:22;100638.94;;;6.15;88.79
10668;BME280;5382;42.136;24.796;2023-03-19T06:21:50;100619.75;;;6.13;88.84
10668;BME280;5382;42.136;24.796;2023-03-19T06:24:17;100631.56;;;6.02;90.78
10668;BME280;5382;42.136;24.796;2023-03-19T06:26:44;100630.19;;;6.14;91.01
10668;BME280;5382;42.136;24.796;2023-03-19T06:29:12;100631.47;;;6.04;90.34
10668;BME280;5382;42.136;24.796;2023-03-19T06:31:38;100614.38;;;5.94;91.33
10668;BME280;5382;42.136;24.796;2023-03-19T06:34:06;100636.81;;;6.02;91.85
10668;BME280;5382;42.136;24.796;2023-03-19T06:36:33;100637.94;;;5.97;90.57
10668;BME280;5382;42.136;24.796;2023-03-19T06:38:59;100629.16;;;5.96;91.59
10668;BME280;5382;42.136;24.796;2023-03-19T06:41:27;100613.66;;;5.90;91.86
10668;BME280;5382;42.136;24.796;2023-03-19T06:43:54;100634.69;;;6.12;91.63
10668;BME280;5382;42.136;24.796;2023-03-19T06:46:22;100624.41;;;6.26;90.68
10668;BME280;5382;42.136;24.796;2023-03-19T06:48:49;100616.72;;;6.42;90.72
10668;BME280;5382;42.136;24.796;2023-03-19T06:51:16;100625.88;;;6.54;89.87
10668;BME280;5382;42.136;24.796;2023-03-19T06:53:43;100629.03;;;6.62;88.70
10668;BME280;5382;42.136;24.796;2023-03-19T06:56:10;100619.81;;;6.72;88.13
10668;BME280;5382;42.136;24.796;2023-03-19T06:58:37;100625.31;;;6.87;87.18
10668;BME280;5382;42.136;24.796;2023-03-19T07:01:04;100568.41;;;6.65;86.52
10668;BME280;5382;42.136;24.796;2023-03-19T07:03:32;100622.56;;;7.09;85.63
10668;BME280;5382;42.136;24.796;2023-03-19T07:05:59;100617.72;;;7.18;85.30
10668;BME280;5382;42.136;24.796;2023-03-19T07:08:26;100604.22;;;7.26;84.57
10668;BME280;5382;42.136;24.796;2023-03-19T07:10:54;100615.44;;;7.30;84.85
10668;BME280;5382;42.136;24.796;2023-03-19T07:13:21;100610.16;;;7.30;85.05
10668;BME280;5382;42.136;24.796;2023-03-19T07:15:47;100611.38;;;7.41;85.15
10668;BME280;5382;42.136;24.796;2023-03-19T07:18:14;100599.06;;;7.42;83.13
10668;BME280;5382;42.136;24.796;2023-03-19T07:20:43;100604.44;;;7.58;83.09
10668;BME280;5382;42.136;24.796;2023-03-19T07:23:09;100606.56;;;7.69;83.66
10668;BME280;5382;42.136;24.796;2023-03-19T07:25:36;100604.13;;;7.83;82.77
10668;BME280;5382;42.136;24.796;2023-03-19T07:28:03;100606.16;;;7.95;80.92
10668;BME280;5382;42.136;24.796;2023-03-19T07:30:31;100606.31;;;8.09;80.47
10668;BME280;5382;42.136;24.796;2023-03-19T07:32:57;100602.22;;;8.21;79.32
10668;BME280;5382;42.136;24.796;2023-03-19T07:35:24;100588.25;;;8.37;74.78
10668;BME280;5382;42.136;24.796;2023-03-19T07:37:52;100604.63;;;8.43;72.79
10668;BME280;5382;42.136;24.796;2023-03-19T07:40:20;100584.72;;;8.36;72.63
10668;BME280;5382;42.136;24.796;2023-03-19T07:42:46;100595.47;;;8.50;71.62
10668;BME280;5382;42.136;24.796;2023-03-19T07:45:13;100595.13;;;8.57;70.33
10668;BME280;5382;42.136;24.796;2023-03-19T07:47:40;100588.94;;;8.58;70.08
10668;BME280;5382;42.136;24.796;2023-03-19T07:50:08;100593.31;;;8.74;70.55
10668;BME280;5382;42.136;24.796;2023-03-19T07:52:35;100590.97;;;8.86;70.44
10668;BME280;5382;42.136;24.796;2023-03-19T07:55:04;100587.91;;;8.93;66.56
10668;BME280;5382;42.136;24.796;2023-03-19T07:57:31;100573.44;;;9.01;66.76
10668;BME280;5382;42.136;24.796;2023-03-19T07:59:58;100581.63;;;9.12;65.98
10668;BME280;5382;42.136;24.796;2023-03-19T08:02:25;100569.09;;;9.15;65.05
10668;BME280;5382;42.136;24.796;2023-03-19T08:04:52;100588.19;;;9.36;65.84
10668;BME280;5382;42.136;24.796;2023-03-19T08:07:19;100591.75;;;9.51;64.82
10668;BME280;5382;42.136;24.796;2023-03-19T08:09:46;100579.16;;;9.56;63.90
10668;BME280;5382;42.136;24.796;2023-03-19T08:12:14;100584.50;;;9.71;65.07
10668;BME280;5382;42.136;24.796;2023-03-19T08:14:41;100566.88;;;9.86;62.00
10668;BME280;5382;42.136;24.796;2023-03-19T08:17:08;100567.91;;;9.83;63.34
10668;BME280;5382;42.136;24.796;2023-03-19T08:19:35;100569.22;;;10.06;62.01
10668;BME280;5382;42.136;24.796;2023-03-19T08:22:01;100571.16;;;10.18;62.82
10668;BME280;5382;42.136;24.796;2023-03-19T08:24:28;100571.38;;;10.30;60.87
10668;BME280;5382;42.136;24.796;2023-03-19T08:26:55;100566.03;;;10.45;60.08
10668;BME280;5382;42.136;24.796;2023-03-19T08:29:24;100545.13;;;10.55;58.98
10668;BME280;5382;42.136;24.796;2023-03-19T08:31:51;100558.09;;;10.74;58.55
10668;BME280;5382;42.136;24.796;2023-03-19T08:34:18;100559.41;;;10.81;56.08
10668;BME280;5382;42.136;24.796;2023-03-19T08:36:46;100557.25;;;10.88;56.38
10668;BME280;5382;42.136;24.796;2023-03-19T08:39:13;100549.84;;;10.93;55.06
10668;BME280;5382;42.136;24.796;2023-03-19T08:41:40;100544.84;;;11.03;55.20
10668;BME280;5382;42.136;24.796;2023-03-19T08:44:07;100551.13;;;11.14;54.28
10668;BME280;5382;42.136;24.796;2023-03-19T08:46:35;100537.59;;;11.19;53.47
10668;BME280;5382;42.136;24.796;2023-03-19T08:49:02;100548.22;;;11.46;53.48
10668;BME280;5382;42.136;24.796;2023-03-19T08:51:29;100525.56;;;11.55;53.27
10668;BME280;5382;42.136;24.796;2023-03-19T08:53:56;100548.13;;;11.75;52.88
10668;BME280;5382;42.136;24.796;2023-03-19T08:56:23;100546.06;;;11.93;51.46
10668;BME280;5382;42.136;24.796;2023-03-19T08:58:50;100540.25;;;12.00;50.24
10668;BME280;5382;42.136;24.796;2023-03-19T09:01:16;100541.88;;;12.16;49.27
10668;BME280;5382;42.136;24.796;2023-03-19T09:03:45;100536.00;;;12.36;48.51
10668;BME280;5382;42.136;24.796;2023-03-19T09:06:12;100524.31;;;12.52;48.22
10668;BME280;5382;42.136;24.796;2023-03-19T09:08:40;100522.38;;;12.79;48.86
10668;BME280;5382;42.136;24.796;2023-03-19T09:11:08;100513.78;;;12.88;48.54
10668;BME280;5382;42.136;24.796;2023-03-19T09:13:36;100516.88;;;13.19;48.10
10668;BME280;5382;42.136;24.796;2023-03-19T09:16:03;100514.53;;;13.27;46.31
10668;BME280;5382;42.136;24.796;2023-03-19T09:18:31;100474.59;;;13.03;44.60
10668;BME280;5382;42.136;24.796;2023-03-19T09:21:00;100511.41;;;13.34;44.23
10668;BME280;5382;42.136;24.796;2023-03-19T09:23:27;100508.53;;;13.37;44.89
10668;BME280;5382;42.136;24.796;2023-03-19T09:25:54;100497.22;;;13.46;44.96
10668;BME280;5382;42.136;24.796;2023-03-19T09:28:21;100494.00;;;13.53;44.92
10668;BME280;5382;42.136;24.796;2023-03-19T09:30:49;100494.09;;;13.87;45.14
10668;BME280;5382;42.136;24.796;2023-03-19T09:33:17;100490.28;;;14.14;44.96
10668;BME280;5382;42.136;24.796;2023-03-19T09:35:48;100488.25;;;14.17;43.47
10668;BME280;5382;42.136;24.796;2023-03-19T09:38:18;100487.91;;;14.33;43.54
10668;BME280;5382;42.136;24.796;2023-03-19T09:40:47;100487.75;;;14.24;43.64
10668;BME280;5382;42.136;24.796;2023-03-19T09:43:33;100475.53;;;14.32;43.67
10668;BME280;5382;42.136;24.796;2023-03-19T09:46:08;100478.25;;;14.55;43.69
10668;BME280;5382;42.136;24.796;2023-03-19T09:48:42;100463.84;;;14.57;44.82
10668;BME280;5382;42.136;24.796;2023-03-19T09:51:17;100464.78;;;14.90;43.59
10668;BME280;5382;42.136;24.796;2023-03-19T09:53:52;100466.66;;;14.99;45.73
10668;BME280;5382;42.136;24.796;2023-03-19T09:56:24;100459.72;;;15.19;45.83
10668;BME280;5382;42.136;24.796;2023-03-19T09:58:52;100449.81;;;15.10;43.90
10668;BME280;5382;42.136;24.796;2023-03-19T10:01:25;100452.09;;;15.15;43.73
10668;BME280;5382;42.136;24.796;2023-03-19T10:04:06;100435.63;;;15.10;44.54
10668;BME280;5382;42.136;24.796;2023-03-19T10:06:38;100446.34;;;15.31;44.60
10668;BME280;5382;42.136;24.796;2023-03-19T10:09:31;100443.38;;;15.45;44.30
10668;BME280;5382;42.136;24.796;2023-03-19T10:12:10;100440.97;;;15.42;44.41
10668;BME280;5382;42.136;24.796;2023-03-19T10:14:54;100437.69;;;15.38;44.22
10668;BME280;5382;42.136;24.796;2023-03-19T10:17:29;100435.81;;;15.29;44.17
10668;BME280;5382;42.136;24.796;2023-03-19T10:20:01;100435.94;;;15.48;46.14
10668;BME280;5382;42.136;24.796;2023-03-19T10:22:35;100428.44;;;15.75;46.12
10668;BME280;5382;42.136;24.796;2023-03-19T10:25:09;100410.06;;;16.02;46.46
10668;BME280;5382;42.136;24.796;2023-03-19T10:27:37;100380.94;;;16.20;48.46
10668;BME280;5382;42.136;24.796;2023-03-19T10:30:12;100393.31;;;16.31;46.22
10668;BME280;5382;42.136;24.796;2023-03-19T10:32:41;100391.69;;;16.49;46.52
10668;BME280;5382;42.136;24.796;2023-03-19T10:35:17;100384.28;;;16.53;47.35
10668;BME280;5382;42.136;24.796;2023-03-19T10:37:44;100380.06;;;16.60;46.90
10668;BME280;5382;42.136;24.796;2023-03-19T10:40:20;100357.94;;;16.29;46.98
10668;BME280;5382;42.136;24.796;2023-03-19T10:43:00;100365.28;;;16.56;46.44
10668;BME280;5382;42.136;24.796;2023-03-19T10:45:31;100353.25;;;16.91;45.89
10668;BME280;5382;42.136;24.796;2023-03-19T10:48:00;100349.06;;;17.17;45.66
10668;BME280;5382;42.136;24.796;2023-03-19T10:50:29;100326.66;;;17.18;45.24
10668;BME280;5382;42.136;24.796;2023-03-19T10:53:04;100349.19;;;18.02;43.97
10668;BME280;5382;42.136;24.796;2023-03-19T10:55:33;100351.47;;;18.70;44.30
10668;BME280;5382;42.136;24.796;2023-03-19T10:58:02;100336.78;;;19.10;41.53
10668;BME280;5382;42.136;24.796;2023-03-19T11:00:31;100328.44;;;19.57;40.64
10668;BME280;5382;42.136;24.796;2023-03-19T11:03:00;100329.25;;;20.18;39.73
10668;BME280;5382;42.136;24.796;2023-03-19T11:05:30;100331.50;;;20.98;39.79
10668;BME280;5382;42.136;24.796;2023-03-19T11:07:59;100307.94;;;21.16;37.78
10668;BME280;5382;42.136;24.796;2023-03-19T11:10:28;100315.31;;;21.63;37.02
10668;BME280;5382;42.136;24.796;2023-03-19T11:12:58;100317.13;;;22.58;35.62
10668;BME280;5382;42.136;24.796;2023-03-19T11:15:30;100303.59;;;23.12;34.54
10668;BME280;5382;42.136;24.796;2023-03-19T11:18:00;100303.53;;;23.88;34.81
10668;BME280;5382;42.136;24.796;2023-03-19T11:20:32;100270.53;;;23.48;35.24
10668;BME280;5382;42.136;24.796;2023-03-19T11:23:01;100288.97;;;23.59;34.67
10668;BME280;5382;42.136;24.796;2023-03-19T11:25:30;100279.41;;;24.01;34.67
10668;BME280;5382;42.136;24.796;2023-03-19T11:28:05;100249.38;;;23.51;34.69
10668;BME280;5382;42.136;24.796;2023-03-19T11:30:39;100276.59;;;23.80;34.66
10668;BME280;5382;42.136;24.796;2023-03-19T11:33:22;100276.63;;;24.31;33.82
10668;BME280;5382;42.136;24.796;2023-03-19T11:35:56;100268.97;;;24.71;32.85
10668;BME280;5382;42.136;24.796;2023-03-19T11:38:33;100263.56;;;24.34;32.35
10668;BME280;5382;42.136;24.796;2023-03-19T11:41:13;100262.00;;;24.62;31.61
10668;BME280;5382;42.136;24.796;2023-03-19T11:43:49;100243.38;;;25.58;31.93
10668;BME280;5382;42.136;24.796;2023-03-19T11:46:27;100247.44;;;26.10;30.99
10668;BME280;5382;42.136;24.796;2023-03-19T11:49:20;100251.75;;;26.92;30.18
10668;BME280;5382;42.136;24.796;2023-03-19T11:51:51;100253.00;;;27.10;30.44
10668;BME280;5382;42.136;24.796;2023-03-19T11:54:30;100249.66;;;26.54;29.57
10668;BME280;5382;42.136;24.796;2023-03-19T11:57:00;100249.06;;;26.04;29.26
10668;BME280;5382;42.136;24.796;2023-03-19T11:59:37;100244.25;;;26.00;30.24
10668;BME280;5382;42.136;24.796;2023-03-19T12:02:24;100247.34;;;26.58;29.13
10668;BME280;5382;42.136;24.796;2023-03-19T12:05:04;100242.59;;;27.13;28.54
10668;BME280;5382;42.136;24.796;2023-03-19T12:07:39;100234.25;;;27.22;29.04
10668;BME280;5382;42.136;24.796;2023-03-19T12:10:27;100235.81;;;27.62;27.94
10668;BME280;5382;42.136;24.796;2023-03-19T12:13:02;100238.75;;;27.68;29.21
10668;BME280;5382;42.136;24.796;2023-03-19T12:15:38;100229.22;;;27.32;29.34
10668;BME280;5382;42.136;24.796;2023-03-19T12:18:18;100228.78;;;28.07;28.06
10668;BME280;5382;42.136;24.796;2023-03-19T12:20:55;100221.38;;;28.14;27.30
10668;BME280;5382;42.136;24.796;2023-03-19T12:23:32;100223.63;;;28.62;26.86
10668;BME280;5382;42.136;24.796;2023-03-19T12:26:02;100220.03;;;28.93;26.87
10668;BME280;5382;42.136;24.796;2023-03-19T12:28:32;100219.19;;;28.67;26.89
10668;BME280;5382;42.136;24.796;2023-03-19T12:31:31;100213.63;;;28.56;26.46
10668;BME280;5382;42.136;24.796;2023-03-19T12:34:14;100200.78;;;28.63;26.87
10668;BME280;5382;42.136;24.796;2023-03-19T12:36:49;100167.00;;;28.70;27.36
10668;BME280;5382;42.136;24.796;2023-03-19T12:39:21;100194.16;;;29.64;27.36
10668;BME280;5382;42.136;24.796;2023-03-19T12:41:50;100193.69;;;30.34;26.20
10668;BME280;5382;42.136;24.796;2023-03-19T12:44:20;100187.31;;;30.22;26.18
10668;BME280;5382;42.136;24.796;2023-03-19T12:46:55;100183.78;;;28.36;27.04
10668;BME280;5382;42.136;24.796;2023-03-19T12:49:26;100188.13;;;28.43;28.02
10668;BME280;5382;42.136;24.796;2023-03-19T12:51:58;100184.28;;;28.83;26.92
10668;BME280;5382;42.136;24.796;2023-03-19T12:54:30;100159.16;;;28.24;27.34
10668;BME280;5382;42.136;24.796;2023-03-19T12:57:05;100181.91;;;28.36;27.48
10668;BME280;5382;42.136;24.796;2023-03-19T12:59:36;100168.56;;;28.28;26.90
10668;BME280;5382;42.136;24.796;2023-03-19T13:02:17;100173.13;;;28.02;27.46
10668;BME280;5382;42.136;24.796;2023-03-19T13:04:50;100164.63;;;28.56;26.79
10668;BME280;5382;42.136;24.796;2023-03-19T13:07:25;100162.03;;;29.29;26.16